Terminal Aerodrome Forecast
Issued by NWS

Home | Current Version | Previous Version | Text Only | Print | Product List | Glossary On
Versions: 1 2 3 4 5 6 7 8 9 10 11 12
439
FTUS43 KICT 211124
TAFCNU
TAF
KCNU 211124Z 2112/2212 17007KT P6SM SKC
     FM211500 20013KT P6SM SKC
     FM211800 19017KT P6SM SCT035
     FM220100 18007KT P6SM SKC=

USA.gov is the U.S. government's official web portal to all federal, state and local government web resources and services.